createdAt,value
2023-04-20T00:00:23.569Z,30.00
2023-04-20T00:03:12.883Z,27.25
2023-04-20T00:05:42.335Z,30.20
2023-04-20T00:08:12.347Z,30.40
2023-04-20T00:10:41.391Z,27.20
2023-04-20T00:13:09.919Z,30.60
2023-04-20T00:15:38.916Z,25.60
2023-04-20T00:18:08.184Z,25.80
2023-04-20T00:20:37.178Z,24.20
2023-04-20T00:23:05.893Z,23.80
2023-04-20T00:25:36.457Z,27.00
2023-04-20T00:28:05.871Z,25.80
2023-04-20T00:30:35.739Z,30.20
2023-04-20T00:33:05.761Z,27.40
2023-04-20T00:35:34.818Z,25.80
2023-04-20T00:38:03.424Z,31.40
2023-04-20T00:40:32.256Z,27.20
2023-04-20T00:43:11.990Z,28.00
2023-04-20T00:45:41.262Z,28.80
2023-04-20T00:48:11.829Z,15.60
2023-04-20T00:50:42.022Z,28.60
2023-04-20T00:53:10.990Z,26.20
2023-04-20T00:55:40.804Z,29.40
2023-04-20T00:58:09.302Z,28.40
2023-04-20T01:00:40.676Z,25.40
2023-04-20T01:03:09.999Z,29.40
2023-04-20T01:05:38.965Z,31.60
2023-04-20T01:08:07.682Z,24.00
2023-04-20T01:10:36.812Z,27.20
2023-04-20T01:13:08.693Z,30.75
2023-04-20T01:15:39.186Z,23.00
2023-04-20T01:18:07.941Z,27.80
2023-04-20T01:20:39.277Z,28.20
2023-04-20T01:23:09.171Z,30.75
2023-04-20T01:25:38.151Z,27.20
2023-04-20T01:28:06.973Z,27.20
2023-04-20T01:30:36.190Z,27.80
2023-04-20T01:33:05.873Z,17.80
2023-04-20T01:35:34.777Z,31.20
2023-04-20T01:38:03.911Z,24.60
2023-04-20T01:40:35.227Z,24.20
2023-04-20T01:43:03.804Z,25.20
2023-04-20T01:45:32.659Z,26.40
2023-04-20T01:48:02.323Z,25.20
2023-04-20T01:50:31.367Z,25.40
2023-04-20T01:53:00.118Z,23.00
2023-04-20T01:55:29.144Z,27.60
2023-04-20T01:57:59.324Z,29.40
2023-04-20T02:00:28.246Z,26.80
2023-04-20T02:02:57.598Z,25.40
2023-04-20T02:05:26.689Z,30.00
2023-04-20T02:07:55.386Z,26.60
2023-04-20T02:10:24.414Z,28.80
2023-04-20T02:12:53.076Z,32.75
2023-04-20T02:15:23.767Z,25.20
2023-04-20T02:17:52.980Z,25.40
2023-04-20T02:20:22.220Z,28.60
2023-04-20T02:22:50.995Z,29.60
2023-04-20T02:25:20.058Z,29.20
2023-04-20T02:27:48.614Z,34.00
2023-04-20T02:30:17.509Z,29.00
2023-04-20T02:32:47.440Z,31.40
2023-04-20T02:35:17.979Z,32.25
2023-04-20T02:37:46.984Z,30.33
2023-04-20T02:40:16.326Z,29.00
2023-04-20T02:42:44.903Z,29.50
2023-04-20T02:45:14.288Z,31.40
2023-04-20T02:47:45.624Z,29.40
2023-04-20T02:50:17.139Z,28.60
2023-04-20T02:53:09.150Z,31.75
2023-04-20T02:55:39.427Z,30.50
2023-04-20T02:58:20.119Z,30.80
2023-04-20T03:01:11.864Z,31.75
2023-04-20T03:03:41.958Z,30.40
2023-04-20T03:06:15.264Z,28.25
2023-04-20T03:08:49.550Z,31.00
2023-04-20T03:11:43.684Z,31.50
2023-04-20T03:14:16.542Z,29.25
2023-04-20T03:16:46.509Z,33.75
2023-04-20T03:19:15.619Z,32.00
2023-04-20T03:21:46.815Z,32.00
2023-04-20T03:24:16.290Z,44.50
2023-04-20T03:26:46.736Z,37.00
2023-04-20T03:29:18.368Z,46.00
2023-04-20T03:31:47.767Z,35.00
2023-04-20T03:34:16.965Z,32.00
2023-04-20T03:36:48.021Z,32.25
2023-04-20T03:39:16.827Z,34.50
2023-04-20T03:41:45.974Z,37.00
2023-04-20T03:44:15.208Z,69.33
2023-04-20T03:46:44.285Z,26.50
2023-04-20T03:49:13.080Z,39.75
2023-04-20T03:51:42.856Z,40.00
2023-04-20T03:54:13.171Z,34.00
2023-04-20T03:56:42.267Z,94.00
2023-04-20T03:59:11.406Z,40.75
2023-04-20T04:01:41.074Z,40.00
2023-04-20T04:04:10.442Z,40.00
2023-04-20T04:06:39.552Z,39.50
2023-04-20T04:09:10.104Z,36.50
2023-04-20T04:11:40.327Z,47.00
2023-04-20T04:14:09.106Z,36.50
2023-04-20T04:16:39.472Z,39.75
2023-04-20T04:19:08.289Z,37.50
2023-04-20T04:21:37.415Z,37.75
2023-04-20T04:24:07.634Z,38.50
2023-04-20T04:26:58.566Z,47.25
2023-04-20T04:29:29.081Z,38.25
2023-04-20T04:32:05.268Z,40.25
2023-04-20T04:34:34.839Z,39.75
2023-04-20T04:37:04.411Z,39.50
2023-04-20T04:39:47.016Z,40.25
2023-04-20T04:42:24.251Z,39.75
2023-04-20T04:44:53.702Z,50.50
2023-04-20T04:47:29.767Z,44.50
2023-04-20T04:50:00.984Z,41.50
2023-04-20T04:52:31.237Z,42.50
2023-04-20T04:55:00.188Z,39.00
2023-04-20T04:57:30.578Z,43.75
2023-04-20T04:59:59.284Z,37.25
2023-04-20T05:02:28.396Z,42.25
2023-04-20T05:04:57.791Z,19.25
2023-04-20T05:07:26.776Z,42.75
2023-04-20T05:09:55.427Z,40.75
2023-04-20T05:12:25.811Z,41.25
2023-04-20T05:14:55.780Z,39.25
2023-04-20T05:17:24.751Z,41.00
2023-04-20T05:19:53.433Z,39.25
2023-04-20T05:22:22.485Z,39.50
2023-04-20T05:24:51.190Z,40.50
2023-04-20T05:27:20.108Z,41.25
2023-04-20T05:29:48.813Z,42.67
2023-04-20T05:32:19.219Z,44.25
2023-04-20T05:34:48.077Z,43.00
2023-04-20T05:37:17.461Z,45.50
2023-04-20T05:39:46.662Z,42.00
2023-04-20T05:42:15.712Z,43.25
2023-04-20T05:44:44.387Z,45.00
2023-04-20T05:47:13.180Z,43.25
2023-04-20T05:49:43.181Z,42.00
2023-04-20T05:52:12.232Z,41.00
2023-04-20T05:54:40.790Z,40.75
2023-04-20T05:57:09.900Z,46.50
2023-04-20T05:59:39.005Z,45.00
2023-04-20T06:02:08.571Z,45.50
2023-04-20T06:04:37.616Z,45.50
2023-04-20T06:07:08.219Z,42.25
2023-04-20T06:09:36.936Z,44.75
2023-04-20T06:12:06.204Z,44.25
2023-04-20T06:14:34.833Z,47.50
2023-04-20T06:17:03.726Z,38.00
2023-04-20T06:19:32.355Z,45.75
2023-04-20T06:22:01.427Z,47.50
2023-04-20T06:24:31.418Z,45.50
2023-04-20T06:27:00.479Z,44.25
2023-04-20T06:29:29.236Z,37.50
2023-04-20T06:31:58.286Z,43.00
2023-04-20T06:34:27.066Z,46.25
2023-04-20T06:36:56.175Z,45.75
2023-04-20T06:39:25.285Z,45.50
2023-04-20T06:41:56.760Z,48.00
2023-04-20T06:44:25.508Z,41.00
2023-04-20T06:46:54.498Z,44.00
2023-04-20T06:49:23.217Z,43.25
2023-04-20T06:51:52.096Z,41.00
2023-04-20T06:54:20.901Z,40.25
2023-04-20T06:56:49.774Z,45.25
2023-04-20T06:59:20.642Z,40.00
2023-04-20T07:01:49.849Z,42.00
2023-04-20T07:04:18.559Z,40.00
2023-04-20T07:06:50.588Z,42.25
2023-04-20T07:09:20.901Z,41.00
2023-04-20T07:11:50.070Z,41.50
2023-04-20T07:14:20.396Z,39.50
2023-04-20T07:16:49.392Z,36.50
2023-04-20T07:19:18.238Z,41.25
2023-04-20T07:21:47.572Z,41.00
2023-04-20T07:24:16.222Z,39.75
2023-04-20T07:26:45.772Z,40.00
2023-04-20T07:29:14.337Z,41.00
2023-04-20T07:31:44.434Z,42.50
2023-04-20T07:34:13.299Z,39.00
2023-04-20T07:36:41.861Z,40.00
2023-04-20T07:39:10.733Z,39.75
2023-04-20T07:41:39.330Z,38.00
2023-04-20T07:44:08.453Z,35.75
2023-04-20T07:46:37.274Z,38.25
2023-04-20T07:49:07.682Z,42.50
2023-04-20T07:51:36.459Z,48.00
2023-04-20T07:54:05.627Z,42.25
2023-04-20T07:56:34.217Z,42.50
2023-04-20T07:59:03.162Z,44.50
2023-04-20T08:01:31.870Z,41.75
2023-04-20T08:04:00.801Z,38.50
2023-04-20T08:06:31.981Z,39.25
2023-04-20T08:09:00.916Z,42.25
2023-04-20T08:11:29.745Z,39.00
2023-04-20T08:13:59.096Z,38.75
2023-04-20T08:16:27.739Z,38.00
2023-04-20T08:18:56.627Z,39.00
2023-04-20T08:21:25.928Z,42.50
2023-04-20T08:23:56.851Z,39.25
2023-04-20T08:26:25.589Z,38.00
2023-04-20T08:28:54.445Z,39.25
2023-04-20T08:31:23.176Z,41.50
2023-04-20T08:33:52.470Z,38.00
2023-04-20T08:36:21.591Z,44.00
2023-04-20T08:38:58.313Z,41.50
2023-04-20T08:41:27.361Z,41.75
2023-04-20T08:43:56.309Z,38.00
2023-04-20T08:46:26.102Z,42.50
2023-04-20T08:48:56.636Z,31.25
2023-04-20T08:51:25.349Z,36.50
2023-04-20T08:53:57.233Z,40.50
2023-04-20T08:56:35.836Z,36.25
2023-04-20T08:59:05.857Z,35.75
2023-04-20T09:01:36.367Z,30.25
2023-04-20T09:04:17.666Z,29.40
2023-04-20T09:06:46.944Z,28.40
2023-04-20T09:09:17.312Z,1.75
2023-04-20T09:11:46.633Z,33.25
2023-04-20T09:14:18.440Z,32.75
2023-04-20T09:16:52.298Z,32.80
2023-04-20T09:19:24.997Z,33.75
2023-04-20T09:21:55.820Z,30.60
2023-04-20T09:24:32.853Z,29.50
2023-04-20T09:27:02.520Z,27.80
2023-04-20T09:29:32.140Z,32.00
2023-04-20T09:32:01.209Z,34.75
2023-04-20T09:34:30.397Z,31.75
2023-04-20T09:36:58.940Z,30.00
2023-04-20T09:39:30.591Z,32.50
2023-04-20T09:42:05.936Z,33.25
2023-04-20T09:44:35.572Z,28.00
2023-04-20T09:47:04.592Z,26.80
2023-04-20T09:49:33.927Z,23.60
2023-04-20T09:52:04.123Z,26.80
2023-04-20T09:54:35.139Z,29.40
2023-04-20T09:57:04.728Z,28.80
2023-04-20T09:59:35.212Z,29.60
2023-04-20T10:02:04.053Z,28.60
2023-04-20T10:04:33.073Z,29.20
2023-04-20T10:07:06.199Z,30.60
2023-04-20T10:09:37.858Z,23.80
2023-04-20T10:12:07.617Z,27.60
2023-04-20T10:14:36.992Z,21.40
2023-04-20T10:17:07.572Z,26.00
2023-04-20T10:19:41.688Z,29.00
2023-04-20T10:22:11.923Z,28.40
2023-04-20T10:24:42.276Z,28.00
2023-04-20T10:27:20.955Z,29.00
2023-04-20T10:29:50.152Z,26.00
2023-04-20T10:32:26.112Z,27.20
2023-04-20T10:35:06.540Z,25.75
2023-04-20T10:37:36.067Z,29.40
2023-04-20T10:40:08.375Z,21.40
2023-04-20T10:42:46.639Z,16.80
2023-04-20T10:45:15.783Z,17.20
2023-04-20T10:47:45.463Z,19.20
2023-04-20T10:50:16.571Z,20.60
2023-04-20T10:52:45.802Z,21.00
2023-04-20T10:55:22.130Z,19.40
2023-04-20T10:57:51.372Z,34.50
2023-04-20T11:00:22.431Z,22.40
2023-04-20T11:02:53.162Z,25.25
2023-04-20T11:05:24.313Z,31.60
2023-04-20T11:07:54.013Z,17.60
2023-04-20T11:10:25.983Z,14.60
2023-04-20T11:12:54.537Z,13.60
2023-04-20T11:15:33.200Z,18.00
2023-04-20T11:18:08.752Z,16.20
2023-04-20T11:20:38.087Z,22.40
2023-04-20T11:23:06.886Z,19.00
2023-04-20T11:25:37.733Z,20.40
2023-04-20T11:28:08.935Z,21.00
2023-04-20T11:30:42.205Z,18.00
2023-04-20T11:33:11.658Z,17.00
2023-04-20T11:35:42.670Z,14.60
2023-04-20T11:38:11.363Z,16.80
2023-04-20T11:40:42.083Z,19.40
2023-04-20T11:43:10.676Z,19.00
2023-04-20T11:45:39.875Z,21.00
2023-04-20T11:48:08.728Z,18.00
2023-04-20T11:50:39.297Z,19.60
2023-04-20T11:53:14.755Z,19.60
2023-04-20T11:55:45.051Z,16.80
2023-04-20T11:58:13.654Z,20.00
2023-04-20T12:00:42.820Z,20.20
2023-04-20T12:03:11.728Z,23.80
2023-04-20T12:05:40.920Z,20.00
2023-04-20T12:08:09.635Z,22.20
2023-04-20T12:10:40.062Z,23.40
2023-04-20T12:13:10.153Z,22.20
2023-04-20T12:15:39.065Z,18.40
2023-04-20T12:18:07.986Z,20.20
2023-04-20T12:20:37.154Z,19.80
2023-04-20T12:23:05.736Z,18.60
2023-04-20T12:25:34.738Z,18.80
2023-04-20T12:28:06.929Z,20.80
2023-04-20T12:30:37.315Z,20.00
2023-04-20T12:33:06.258Z,16.60
2023-04-20T12:35:35.755Z,18.20
2023-04-20T12:38:04.243Z,16.80
2023-04-20T12:40:33.150Z,17.40
2023-04-20T12:43:01.668Z,12.00
2023-04-20T12:45:31.202Z,16.20
2023-04-20T12:48:01.363Z,17.40
2023-04-20T12:50:30.205Z,17.80
2023-04-20T12:52:58.956Z,19.40
2023-04-20T12:55:27.946Z,11.00
2023-04-20T12:57:56.862Z,14.80
2023-04-20T13:00:26.151Z,15.40
2023-04-20T13:02:54.986Z,14.40
2023-04-20T13:05:25.397Z,16.00
2023-04-20T13:07:54.008Z,13.60
2023-04-20T13:10:23.166Z,15.60
2023-04-20T13:12:52.663Z,16.40
2023-04-20T13:15:31.789Z,14.80
2023-04-20T13:18:07.611Z,16.80
2023-04-20T13:20:38.126Z,13.80
2023-04-20T13:23:07.096Z,17.60
2023-04-20T13:25:38.374Z,22.40
2023-04-20T13:28:07.313Z,16.20
2023-04-20T13:30:36.214Z,17.80
2023-04-20T13:33:04.984Z,14.00
2023-04-20T13:35:34.640Z,1.00
2023-04-20T13:38:05.265Z,17.80
2023-04-20T13:40:34.325Z,12.00
2023-04-20T13:43:02.879Z,12.60
2023-04-20T13:45:31.908Z,12.40
2023-04-20T13:48:00.650Z,10.00
2023-04-20T13:50:29.581Z,11.40
2023-04-20T13:52:58.383Z,10.60
2023-04-20T13:55:28.809Z,11.60
2023-04-20T13:57:57.514Z,13.80
2023-04-20T14:00:26.846Z,11.60
2023-04-20T14:02:56.322Z,9.60
2023-04-20T14:05:25.361Z,10.00
2023-04-20T14:07:54.129Z,15.20
2023-04-20T14:10:23.177Z,11.80
2023-04-20T14:12:53.252Z,25.20
2023-04-20T14:15:22.310Z,15.00
2023-04-20T14:17:52.475Z,12.00
2023-04-20T14:20:21.931Z,10.80
2023-04-20T14:22:50.822Z,7.00
2023-04-20T14:25:20.127Z,17.20
2023-04-20T14:27:49.118Z,16.60
2023-04-20T14:30:19.408Z,13.60
2023-04-20T14:32:56.100Z,13.00
2023-04-20T14:35:27.171Z,12.80
2023-04-20T14:37:55.881Z,13.60
2023-04-20T14:40:24.775Z,15.60
2023-04-20T14:42:53.516Z,12.40
2023-04-20T14:45:24.798Z,14.80
2023-04-20T14:47:55.161Z,12.00
2023-04-20T14:50:27.412Z,13.80
2023-04-20T14:52:57.019Z,14.60
2023-04-20T14:55:26.748Z,13.00
2023-04-20T14:57:57.367Z,13.60
2023-04-20T15:00:29.006Z,11.00
2023-04-20T15:02:59.708Z,15.20
2023-04-20T15:05:29.541Z,10.20
2023-04-20T15:07:58.471Z,11.20
2023-04-20T15:10:27.572Z,10.20
2023-04-20T15:12:56.149Z,12.40
2023-04-20T15:15:34.522Z,10.40
2023-04-20T15:18:11.629Z,9.60
2023-04-20T15:20:40.535Z,14.20
2023-04-20T15:23:09.300Z,10.80
2023-04-20T15:25:38.163Z,15.20
2023-04-20T15:28:06.960Z,15.20
2023-04-20T15:30:36.156Z,9.60
2023-04-20T15:33:05.607Z,16.00
2023-04-20T15:35:36.794Z,12.40
2023-04-20T15:38:05.507Z,11.00
2023-04-20T15:40:34.469Z,18.20
2023-04-20T15:43:04.278Z,23.20
2023-04-20T15:45:33.271Z,13.40
2023-04-20T15:48:02.076Z,15.20
2023-04-20T15:50:32.061Z,10.80
2023-04-20T15:53:02.455Z,11.00
2023-04-20T15:55:34.601Z,12.60
2023-04-20T15:58:03.674Z,12.40
2023-04-20T16:00:32.574Z,14.60
2023-04-20T16:03:02.232Z,12.40
2023-04-20T16:05:31.214Z,10.80
2023-04-20T16:08:01.834Z,10.00
2023-04-20T16:10:30.770Z,10.80
2023-04-20T16:12:59.900Z,22.40
2023-04-20T16:15:28.773Z,12.20
2023-04-20T16:18:00.083Z,13.00
2023-04-20T16:20:28.778Z,11.80
2023-04-20T16:22:57.998Z,9.00
2023-04-20T16:25:28.552Z,12.00
2023-04-20T16:27:57.772Z,13.00
2023-04-20T16:30:26.907Z,11.80
2023-04-20T16:32:55.837Z,13.00
2023-04-20T16:35:24.680Z,14.60
2023-04-20T16:37:53.543Z,13.00
2023-04-20T16:40:22.244Z,13.00
2023-04-20T16:42:52.650Z,10.20
2023-04-20T16:45:21.371Z,12.80
2023-04-20T16:47:51.439Z,13.00
2023-04-20T16:50:20.524Z,15.80
2023-04-20T16:52:51.205Z,14.60
2023-04-20T16:55:20.095Z,13.60
2023-04-20T16:57:49.223Z,15.20
2023-04-20T17:00:19.928Z,15.80
2023-04-20T17:02:49.239Z,15.20
2023-04-20T17:05:18.156Z,17.00
2023-04-20T17:07:47.384Z,20.80
2023-04-20T17:10:17.123Z,19.20
2023-04-20T17:12:46.029Z,17.40
2023-04-20T17:15:14.721Z,17.40
2023-04-20T17:17:45.160Z,17.00
2023-04-20T17:20:14.356Z,15.00
2023-04-20T17:22:43.678Z,16.60
2023-04-20T17:25:12.193Z,15.60
2023-04-20T17:27:41.210Z,16.80
2023-04-20T17:30:11.213Z,16.20
2023-04-20T17:32:40.497Z,17.00
2023-04-20T17:35:11.223Z,17.00
2023-04-20T17:37:40.281Z,16.60
2023-04-20T17:40:10.098Z,14.80
2023-04-20T17:42:39.013Z,16.80
2023-04-20T17:45:08.787Z,21.80
2023-04-20T17:47:37.858Z,15.20
2023-04-20T17:50:07.685Z,16.00
2023-04-20T17:52:38.112Z,33.50
2023-04-20T17:55:08.826Z,29.00
2023-04-20T17:57:37.795Z,26.00
2023-04-20T18:00:08.695Z,22.00
2023-04-20T18:02:41.822Z,23.00
2023-04-20T18:05:11.214Z,23.60
2023-04-20T18:07:41.685Z,22.80
2023-04-20T18:10:13.529Z,20.40
2023-04-20T18:12:42.514Z,20.20
2023-04-20T18:15:11.752Z,21.80
2023-04-20T18:17:40.743Z,19.60
2023-04-20T18:20:10.048Z,19.20
2023-04-20T18:22:39.337Z,21.00
2023-04-20T18:25:10.267Z,18.40
2023-04-20T18:27:39.701Z,22.00
2023-04-20T18:30:09.966Z,18.60
2023-04-20T18:32:39.086Z,21.20
2023-04-20T18:35:08.787Z,18.60
2023-04-20T18:37:38.498Z,21.60
2023-04-20T18:40:09.988Z,19.60
2023-04-20T18:42:38.793Z,20.60
2023-04-20T18:45:08.370Z,22.40
2023-04-20T18:47:37.548Z,19.80
2023-04-20T18:50:07.341Z,22.20
2023-04-20T18:52:36.282Z,23.00
2023-04-20T18:55:05.186Z,19.60
2023-04-20T18:57:35.845Z,22.80
2023-04-20T19:00:07.659Z,17.60
2023-04-20T19:02:37.397Z,22.00
2023-04-20T19:05:06.976Z,22.00
2023-04-20T19:07:35.905Z,20.60
2023-04-20T19:10:04.928Z,18.60
2023-04-20T19:12:35.274Z,23.00
2023-04-20T19:15:04.538Z,24.40
2023-04-20T19:17:33.748Z,24.60
2023-04-20T19:20:03.897Z,26.00
2023-04-20T19:22:33.313Z,23.00
2023-04-20T19:25:02.060Z,22.40
2023-04-20T19:27:31.048Z,25.00
2023-04-20T19:30:01.112Z,27.00
2023-04-20T19:32:30.070Z,13.40
2023-04-20T19:34:59.738Z,26.00
2023-04-20T19:37:28.916Z,26.00
2023-04-20T19:39:57.713Z,28.20
2023-04-20T19:42:26.689Z,31.20
2023-04-20T19:44:55.298Z,27.40
2023-04-20T19:47:25.899Z,27.00
2023-04-20T19:49:54.574Z,31.25
2023-04-20T19:52:23.532Z,37.00
2023-04-20T19:54:52.422Z,35.25
2023-04-20T19:57:21.386Z,37.50
2023-04-20T19:59:50.011Z,43.50
2023-04-20T20:02:19.226Z,45.75
2023-04-20T20:04:49.773Z,45.75
2023-04-20T20:07:18.969Z,47.00
2023-04-20T20:09:47.538Z,43.50
2023-04-20T20:12:16.639Z,45.50
2023-04-20T20:14:45.331Z,47.00
2023-04-20T20:17:14.619Z,46.00
2023-04-20T20:19:43.202Z,49.50
2023-04-20T20:22:13.778Z,44.00
2023-04-20T20:24:44.457Z,51.00
2023-04-20T20:27:13.621Z,53.75
2023-04-20T20:29:42.265Z,52.50
2023-04-20T20:32:11.314Z,56.25
2023-04-20T20:34:40.192Z,52.00
2023-04-20T20:37:10.412Z,52.25
2023-04-20T20:39:40.717Z,51.00
2023-04-20T20:42:10.438Z,47.75
2023-04-20T20:44:40.100Z,54.00
2023-04-20T20:47:09.559Z,54.25
2023-04-20T20:49:38.220Z,56.00
2023-04-20T20:52:07.306Z,56.75
2023-04-20T20:54:35.985Z,42.75
2023-04-20T20:57:06.403Z,52.25
2023-04-20T20:59:35.119Z,51.50
2023-04-20T21:02:04.498Z,53.75
2023-04-20T21:04:33.413Z,52.00
2023-04-20T21:07:02.446Z,53.00
2023-04-20T21:09:31.347Z,53.75
2023-04-20T21:12:00.842Z,51.00
2023-04-20T21:14:30.846Z,48.75
2023-04-20T21:16:59.888Z,49.00
2023-04-20T21:19:28.503Z,51.00
2023-04-20T21:21:57.478Z,51.25
2023-04-20T21:24:26.165Z,51.50
2023-04-20T21:26:55.437Z,51.50
2023-04-20T21:29:24.065Z,51.50
2023-04-20T21:31:54.392Z,51.25
2023-04-20T21:34:22.995Z,53.75
2023-04-20T21:36:52.077Z,48.25
2023-04-20T21:39:21.003Z,50.25
2023-04-20T21:41:50.196Z,47.50
2023-04-20T21:44:18.863Z,50.25
2023-04-20T21:46:47.690Z,52.75
2023-04-20T21:49:17.745Z,50.25
2023-04-20T21:51:46.837Z,51.25
2023-04-20T21:54:15.476Z,51.25
2023-04-20T21:56:44.455Z,24.00
2023-04-20T21:59:14.326Z,52.25
2023-04-20T22:01:46.384Z,49.00
2023-04-20T22:04:16.895Z,48.50
2023-04-20T22:06:48.788Z,50.50
2023-04-20T22:09:18.557Z,50.50
2023-04-20T22:11:47.803Z,49.75
2023-04-20T22:14:16.532Z,46.25
2023-04-20T22:16:45.371Z,49.25
2023-04-20T22:19:13.954Z,48.25
2023-04-20T22:21:43.095Z,48.75
2023-04-20T22:24:13.022Z,49.25
2023-04-20T22:26:42.217Z,48.00
2023-04-20T22:29:10.890Z,45.75
2023-04-20T22:31:39.796Z,48.25
2023-04-20T22:34:08.330Z,47.50
2023-04-20T22:36:37.130Z,48.75
2023-04-20T22:39:05.704Z,48.25
2023-04-20T22:41:36.035Z,38.75
2023-04-20T22:44:04.582Z,43.00
2023-04-20T22:46:33.442Z,44.50
2023-04-20T22:49:02.181Z,42.50
2023-04-20T22:51:31.893Z,47.00
2023-04-20T22:54:01.060Z,44.75
2023-04-20T22:56:30.282Z,36.25
2023-04-20T22:59:00.177Z,37.00
2023-04-20T23:01:29.167Z,42.00
2023-04-20T23:03:57.735Z,41.00
2023-04-20T23:06:29.695Z,42.00
2023-04-20T23:09:00.040Z,37.00
2023-04-20T23:11:29.987Z,39.00
2023-04-20T23:13:59.838Z,36.75
2023-04-20T23:16:28.903Z,34.50
2023-04-20T23:18:57.376Z,35.25
2023-04-20T23:21:27.821Z,35.50
2023-04-20T23:23:57.788Z,38.50
2023-04-20T23:26:26.790Z,40.00
2023-04-20T23:28:55.316Z,36.75
2023-04-20T23:31:25.511Z,37.25
2023-04-20T23:33:54.017Z,39.00
2023-04-20T23:36:22.901Z,26.75
2023-04-20T23:38:51.485Z,42.50
2023-04-20T23:41:20.628Z,36.00
2023-04-20T23:43:49.073Z,39.75
2023-04-20T23:46:18.527Z,37.75
2023-04-20T23:48:49.315Z,38.75
2023-04-20T23:51:18.202Z,39.50
2023-04-20T23:53:46.827Z,39.25
2023-04-20T23:56:15.708Z,37.00
2023-04-20T23:58:44.355Z,38.75
